^^
Datos históricos de la estación: Murcia-Puente Tocinos
Diario Informe para Septiembre 2, 2019 Unidades:  Métrico    Ingés   Ambas
Diario Semanal Mensual Anual
  Máxima: Mínima: Promedio:
Temperatura: 32.3 °C 23.7 °C 27.8 °C
Punto de rocio: 21.8 °C 19.5 °C 20.8 °C
Humedad: 81% 48.7% 67%
Velocidad viento: 18.4km/h 0km/h 9km/h
Racha viento: 33.8km/h - -
Viento- - SE
Presión: 1013.4 hPa 1010.1 hPa -
Precipitación: 0.0 mm    
 
 
Tabla de datos para Septiembre 2, 2019
Hora Temperatura Punto de rocio Presión Viento Velocidad viento Racha viento Humedad Intensidad lluvia(por hora) Nubes
00:04 26.2 °C 21 °C 1012.0 hPa Sur 5.8 km/h 11.3 km/h 73% 0.0 mm
00:09 26.2 °C 21 °C 1012.0 hPa SSE 5.5 km/h 9.3 km/h 72.9% 0.0 mm
00:14 26.2 °C 21 °C 1012.0 hPa SSE 5 km/h 9.7 km/h 73% 0.0 mm
00:19 26.2 °C 20.9 °C 1012.0 hPa Sur 4.6 km/h 9.7 km/h 72.8% 0.0 mm
00:24 26.1 °C 20.9 °C 1011.9 hPa SSE 3.9 km/h 8 km/h 73% 0.0 mm
00:29 26.1 °C 20.9 °C 1011.9 hPa SE 3.5 km/h 6.9 km/h 73% 0.0 mm
00:34 26.1 °C 20.8 °C 1011.9 hPa NE 2.9 km/h 8.4 km/h 73% 0.0 mm
00:39 25.9 °C 20.7 °C 1011.8 hPa NNE 3.2 km/h 8 km/h 73% 0.0 mm
00:44 25.8 °C 20.8 °C 1011.8 hPa NNO 3.9 km/h 8 km/h 73.8% 0.0 mm
00:49 25.8 °C 20.8 °C 1012.0 hPa NE 3.6 km/h 7.6 km/h 74.2% 0.0 mm
00:54 25.7 °C 20.9 °C 1012.0 hPa NNO 3.2 km/h 8 km/h 75.1% 0.0 mm
00:59 25.6 °C 21 °C 1012.0 hPa NNO 3.5 km/h 8 km/h 76% 0.0 mm
01:04 25.4 °C 21 °C 1012.0 hPa NNE 3.9 km/h 8 km/h 76.4% 0.0 mm
01:09 25.3 °C 21 °C 1011.9 hPa NNE 4.1 km/h 9.5 km/h 77% 0.0 mm
01:14 25.2 °C 21 °C 1011.9 hPa NNE 4.7 km/h 9.7 km/h 77.7% 0.0 mm
01:19 25.1 °C 21 °C 1012.0 hPa NNE 4.8 km/h 8.4 km/h 78% 0.0 mm
01:24 25 °C 21.1 °C 1012.0 hPa NNE 5 km/h 8 km/h 78.7% 0.0 mm
01:29 25 °C 21.1 °C 1012.0 hPa North 4.6 km/h 8 km/h 79% 0.0 mm
01:34 24.9 °C 21 °C 1012.0 hPa NNE 3.9 km/h 8 km/h 79% 0.0 mm
01:39 24.9 °C 21 °C 1011.9 hPa NNO 3.9 km/h 9.5 km/h 79% 0.0 mm
01:44 24.9 °C 21 °C 1011.9 hPa NNO 3.9 km/h 10 km/h 79% 0.0 mm
01:49 24.8 °C 20.9 °C 1011.9 hPa NNO 4.2 km/h 9.7 km/h 79% 0.0 mm
01:54 24.8 °C 20.9 °C 1011.7 hPa NNO 5 km/h 9.7 km/h 79% 0.0 mm
01:59 24.8 °C 20.9 °C 1011.7 hPa NO 4.6 km/h 9.7 km/h 79% 0.0 mm
02:04 24.8 °C 20.9 °C 1011.7 hPa NO 3.9 km/h 8 km/h 79% 0.0 mm
02:09 24.8 °C 20.9 °C 1011.7 hPa NO 3.5 km/h 8 km/h 79% 0.0 mm
02:14 24.8 °C 20.9 °C 1011.7 hPa NO 2.9 km/h 6.4 km/h 79% 0.0 mm
02:19 24.9 °C 21 °C 1011.7 hPa NNO 3 km/h 7.4 km/h 79% 0.0 mm
02:24 24.9 °C 21 °C 1011.5 hPa NNO 3.2 km/h 8 km/h 79% 0.0 mm
02:29 24.9 °C 21 °C 1011.5 hPa NO 2.9 km/h 8 km/h 79% 0.0 mm
02:34 24.9 °C 21 °C 1011.5 hPa NO 2.2 km/h 5.6 km/h 79% 0.0 mm
02:39 24.9 °C 21 °C 1011.5 hPa NO 1.5 km/h 4.8 km/h 79% 0.0 mm
02:44 24.9 °C 21.2 °C 1011.5 hPa Calm     79.9% 0.0 mm
02:49 24.9 °C 21.1 °C 1011.5 hPa Calm   5.8 km/h 79.8% 0.0 mm
02:54 24.8 °C 20.9 °C 1011.4 hPa Calm   8.4 km/h 79.3% 0.0 mm
02:59 24.6 °C 21 °C 1011.4 hPa ESE 1.9 km/h 8 km/h 80% 0.0 mm
03:04 24.5 °C 20.9 °C 1011.4 hPa SE 5 km/h 8 km/h 80% 0.0 mm
03:09 24.4 °C 20.9 °C 1011.3 hPa SE 4.1 km/h 7.4 km/h 80.8% 0.0 mm
03:14 24.4 °C 20.9 °C 1011.3 hPa SE 2.2 km/h 8 km/h 81% 0.0 mm
03:19 24.4 °C 20.9 °C 1011.3 hPa ESE 2.8 km/h 8 km/h 81% 0.0 mm
03:24 24.5 °C 21 °C 1011.3 hPa SE 3.9 km/h 8 km/h 81% 0.0 mm
03:29 24.5 °C 21 °C 1011.3 hPa SE 3.6 km/h 9.5 km/h 81% 0.0 mm
03:34 24.5 °C 21 °C 1011.3 hPa SE 3.2 km/h 9.7 km/h 81% 0.0 mm
03:39 24.5 °C 21 °C 1011.3 hPa SE 4.1 km/h 8.4 km/h 81% 0.0 mm
03:44 24.5 °C 20.9 °C 1011.3 hPa SSE 5.8 km/h 8.7 km/h 80.5% 0.0 mm
03:49 24.5 °C 20.9 °C 1011.3 hPa Sur 5.4 km/h 9.7 km/h 80% 0.0 mm
03:54 24.6 °C 20.9 °C 1011.2 hPa Sur 4.7 km/h 8.4 km/h 80% 0.0 mm
03:59 24.6 °C 20.9 °C 1011.2 hPa Sur 4.8 km/h 8.7 km/h 80% 0.0 mm
04:04 24.6 °C 21 °C 1011.3 hPa Sur 5 km/h 9.7 km/h 80% 0.0 mm
04:09 24.7 °C 20.9 °C 1011.3 hPa Sur 5.5 km/h 9.7 km/h 79.1% 0.0 mm
04:14 24.7 °C 20.8 °C 1011.3 hPa Sur 6.5 km/h 9.7 km/h 79% 0.0 mm
04:19 24.7 °C 20.9 °C 1011.3 hPa SSO 6 km/h 9.7 km/h 79% 0.0 mm
04:24 24.8 °C 21 °C 1011.3 hPa SO 5 km/h 8 km/h 79.5% 0.0 mm
04:29 24.8 °C 20.9 °C 1011.3 hPa OSO 4.6 km/h 8 km/h 79% 0.0 mm
04:34 24.8 °C 20.9 °C 1011.3 hPa OSO 3.9 km/h 8 km/h 79% 0.0 mm
04:39 24.8 °C 20.9 °C 1011.3 hPa Oeste 3.5 km/h 8.4 km/h 79% 0.0 mm
04:44 24.8 °C 20.9 °C 1011.3 hPa OSO 2.9 km/h 8 km/h 79.3% 0.0 mm
04:49 24.7 °C 20.8 °C 1011.3 hPa OSO 3.5 km/h 8 km/h 79% 0.0 mm
04:54 24.7 °C 20.8 °C 1011.3 hPa SO 4.7 km/h 9.5 km/h 78.6% 0.0 mm
04:59 24.7 °C 20.7 °C 1011.3 hPa SO 4.7 km/h 9.7 km/h 78% 0.0 mm
05:04 24.8 °C 20.7 °C 1011.3 hPa OSO 4.7 km/h 9.7 km/h 78% 0.0 mm
05:09 24.8 °C 20.7 °C 1011.2 hPa SO 4.1 km/h 13.7 km/h 78% 0.0 mm
05:14 24.7 °C 20.6 °C 1011.2 hPa SO 3.2 km/h 14.5 km/h 78% 0.0 mm
05:19 24.7 °C 20.6 °C 1011.2 hPa SO 4.5 km/h 13 km/h 78% 0.0 mm
05:24 24.7 °C 20.8 °C 1011.1 hPa OSO 6.9 km/h 13 km/h 78.9% 0.0 mm
05:29 24.6 °C 20.7 °C 1011.1 hPa OSO 7.2 km/h 13 km/h 79% 0.0 mm
05:34 24.6 °C 20.7 °C 1011.1 hPa OSO 7.6 km/h 17.2 km/h 79% 0.0 mm
05:39 24.4 °C 20.5 °C 1010.8 hPa OSO 8.3 km/h 17.7 km/h 79% 0.0 mm
05:44 24.4 °C 20.5 °C 1010.8 hPa SO 9.5 km/h 16.1 km/h 79% 0.0 mm
05:49 24.4 °C 20.5 °C 1010.8 hPa SO 8.8 km/h 14.5 km/h 79% 0.0 mm
05:54 24.3 °C 20.5 °C 1010.7 hPa SO 7.6 km/h 14.5 km/h 79.1% 0.0 mm
05:59 24.3 °C 20.5 °C 1010.7 hPa SO 7.3 km/h 13 km/h 79.5% 0.0 mm
06:04 24.3 °C 20.6 °C 1010.7 hPa SO 6.9 km/h 12.9 km/h 80% 0.0 mm
06:09 24.2 °C 20.6 °C 1010.6 hPa OSO 6.8 km/h 11.3 km/h 80% 0.0 mm
06:14 24.2 °C 20.6 °C 1010.6 hPa SO 6.5 km/h 11.1 km/h 80% 0.0 mm
06:19 24.1 °C 20.5 °C 1010.7 hPa SO 6.6 km/h 11.3 km/h 80% 0.0 mm
06:24 24.1 °C 20.4 °C 1010.7 hPa SO 6.9 km/h 9.7 km/h 80% 0.0 mm
06:29 24.1 °C 20.4 °C 1010.7 hPa Sur 6.5 km/h 13 km/h 80% 0.0 mm
06:34 23.9 °C 20.3 °C 1011.0 hPa SSE 5.8 km/h 12.9 km/h 80% 0.0 mm
06:39 23.8 °C 20.2 °C 1011.0 hPa SSE 6.4 km/h 12.2 km/h 80% 0.0 mm
06:44 23.8 °C 20.3 °C 1011.0 hPa Sur 7.6 km/h 13.7 km/h 80.8% 0.0 mm
06:49 23.7 °C 20.2 °C 1011.0 hPa Sur 7.9 km/h 14.5 km/h 81% 0.0 mm
06:54 23.7 °C 20.2 °C 1011.0 hPa SSE 8.4 km/h 13 km/h 81% 0.0 mm
06:59 23.7 °C 20.1 °C 1011.0 hPa SSE 8.5 km/h 13 km/h 80.5% 0.0 mm
07:04 23.7 °C 20.2 °C 1011.2 hPa SSE 8.7 km/h 12.9 km/h 80.8% 0.0 mm
07:09 23.7 °C 20.2 °C 1011.2 hPa SSE 8.1 km/h 11.3 km/h 81% 0.0 mm
07:14 23.7 °C 20.2 °C 1011.2 hPa SSE 6.9 km/h 11.1 km/h 81% 0.0 mm
07:19 23.8 °C 20.3 °C 1011.6 hPa SSE 6.9 km/h 11.3 km/h 81% 0.0 mm
07:24 23.8 °C 20.3 °C 1011.6 hPa SE 6.9 km/h 9.7 km/h 81% 0.0 mm
07:29 23.8 °C 20.3 °C 1011.6 hPa SE 6.8 km/h 11.1 km/h 81% 0.0 mm
07:34 23.8 °C 20.3 °C 1011.6 hPa Sur 6.5 km/h 11.3 km/h 81% 0.0 mm
07:39 23.9 °C 20.4 °C 1011.5 hPa SSO 5.9 km/h 11.3 km/h 81% 0.0 mm
07:44 23.9 °C 20.4 °C 1011.5 hPa SO 5 km/h 8 km/h 81% 0.0 mm
07:49 24 °C 20.6 °C 1011.6 hPa SO 4.6 km/h 8.4 km/h 81% 0.0 mm
07:54 24.1 °C 20.5 °C 1011.6 hPa Oeste 3.9 km/h 8 km/h 80.5% 0.0 mm
07:59 24.2 °C 20.6 °C 1011.6 hPa Oeste 4.3 km/h 8 km/h 80% 0.0 mm
08:04 24.3 °C 20.6 °C 1011.6 hPa ONO 5 km/h 8.4 km/h 80% 0.0 mm
08:09 24.3 °C 20.7 °C 1011.5 hPa ONO 4.9 km/h 8.4 km/h 80% 0.0 mm
08:14 24.5 °C 20.6 °C 1011.5 hPa ONO 4.7 km/h 8 km/h 79.1% 0.0 mm
08:19 24.6 °C 20.7 °C 1011.6 hPa ONO 4.4 km/h 8 km/h 79% 0.0 mm
08:24 24.7 °C 20.8 °C 1011.6 hPa Oeste 3.9 km/h 8 km/h 79% 0.0 mm
08:29 24.8 °C 20.7 °C 1011.6 hPa OSO 3.6 km/h 8 km/h 78.1% 0.0 mm
08:34 24.9 °C 20.8 °C 1011.9 hPa ONO 3.2 km/h 8 km/h 78% 0.0 mm
08:39 25.2 °C 20.9 °C 1011.9 hPa ENE 3.1 km/h 5.6 km/h 77.1% 0.0 mm
08:44 25.5 °C 20.9 °C 1011.9 hPa NE 2.9 km/h 4.8 km/h 75.6% 0.0 mm
08:49 25.8 °C 21 °C 1011.9 hPa NE 2.7 km/h 7.4 km/h 75% 0.0 mm
08:54 25.8 °C 20.9 °C 1011.8 hPa NE 2.2 km/h 10 km/h 74.2% 0.0 mm
08:59 25.7 °C 20.9 °C 1011.8 hPa NNE 3.8 km/h 10 km/h 74.7% 0.0 mm
09:04 25.7 °C 20.9 °C 1012.0 hPa NE 6.5 km/h 9.7 km/h 74.9% 0.0 mm
09:09 25.7 °C 21 °C 1012.0 hPa NE 5.9 km/h 9.7 km/h 75% 0.0 mm
09:14 25.8 °C 20.9 °C 1012.0 hPa ENE 5 km/h 8.4 km/h 74.5% 0.0 mm
09:19 25.9 °C 21.1 °C 1012.2 hPa NE 5 km/h 8 km/h 75% 0.0 mm
09:24 26.1 °C 21.1 °C 1012.2 hPa NE 5 km/h 11.1 km/h 74.1% 0.0 mm
09:29 26.1 °C 21.1 °C 1012.2 hPa NE 5.3 km/h 11.3 km/h 74% 0.0 mm
09:34 26.2 °C 21.2 °C 1012.3 hPa NNE 5.8 km/h 11.1 km/h 73.9% 0.0 mm
09:39 26.2 °C 21.1 °C 1012.3 hPa NNE 5.8 km/h 11.3 km/h 73.4% 0.0 mm
09:44 26.3 °C 21 °C 1012.3 hPa NNE 5.8 km/h 9.7 km/h 73% 0.0 mm
09:49 26.4 °C 21.1 °C 1012.4 hPa NE 5.5 km/h 9.7 km/h 72.6% 0.0 mm
09:54 26.6 °C 21.2 °C 1012.4 hPa ENE 5 km/h 9.7 km/h 72.4% 0.0 mm
09:59 26.8 °C 21.2 °C 1012.4 hPa North 5 km/h 8.4 km/h 71.8% 0.0 mm
10:04 27 °C 21.3 °C 1012.4 hPa NNE 5 km/h 8.4 km/h 71.3% 0.0 mm
10:09 27.2 °C 21.3 °C 1012.4 hPa NE 4.9 km/h 11.1 km/h 70.1% 0.0 mm
10:14 27.3 °C 21.3 °C 1012.4 hPa NE 4.7 km/h 14.8 km/h 69.8% 0.0 mm
10:19 27.3 °C 21.2 °C 1012.5 hPa ENE 5.4 km/h 14.8 km/h 69.6% 0.0 mm
10:24 27.2 °C 21.3 °C 1012.5 hPa NE 6.9 km/h 14.5 km/h 70% 0.0 mm
10:29 27.3 °C 21.3 °C 1012.5 hPa NNE 6.9 km/h 12.9 km/h 69.7% 0.0 mm
10:34 27.5 °C 21.3 °C 1012.5 hPa NNE 6.9 km/h 13 km/h 69% 0.0 mm
10:39 27.7 °C 21.4 °C 1012.5 hPa NNE 6.9 km/h 14.8 km/h 68.8% 0.0 mm
10:44 27.7 °C 21.3 °C 1012.5 hPa NNE 6.9 km/h 15.6 km/h 68.2% 0.0 mm
10:49 27.7 °C 21.3 °C 1012.7 hPa NNO 7.4 km/h 16.1 km/h 68% 0.0 mm
10:54 27.8 °C 21.4 °C 1012.7 hPa NNE 8.4 km/h 16.1 km/h 68.3% 0.0 mm
10:59 28 °C 21.4 °C 1012.7 hPa NNE 8.4 km/h 18.5 km/h 67.5% 0.0 mm
11:04 28.1 °C 21.4 °C 1012.8 hPa NNE 8.4 km/h 19.3 km/h 67% 0.0 mm
11:09 28.2 °C 21.4 °C 1012.8 hPa NNE 8.5 km/h 15.6 km/h 66.5% 0.0 mm
11:14 28.3 °C 21.3 °C 1012.8 hPa NE 8.7 km/h 16.1 km/h 65.6% 0.0 mm
11:19 28.4 °C 21.2 °C 1012.9 hPa NNE 9 km/h 17.2 km/h 65% 0.0 mm
11:24 28.7 °C 21.2 °C 1012.9 hPa NNE 9.5 km/h 18.5 km/h 64.1% 0.0 mm
11:29 28.8 °C 21.2 °C 1012.9 hPa NNE 9.2 km/h 19.3 km/h 63.5% 0.0 mm
11:34 28.9 °C 21.2 °C 1012.9 hPa NE 8.7 km/h 18.5 km/h 63.1% 0.0 mm
11:39 29.2 °C 21.2 °C 1012.9 hPa NE 9 km/h 22.5 km/h 62.5% 0.0 mm
11:44 29.3 °C 21 °C 1012.9 hPa NNE 9.5 km/h 22.5 km/h 61.2% 0.0 mm
11:49 29.4 °C 21.2 °C 1012.9 hPa ENE 9.2 km/h 17.7 km/h 61.3% 0.0 mm
11:54 29.6 °C 20.8 °C 1012.8 hPa ESE 8.7 km/h 16.7 km/h 59.2% 0.0 mm
11:59 29.8 °C 20.6 °C 1012.8 hPa SE 8.6 km/h 18.5 km/h 58% 0.0 mm
12:04 29.9 °C 20.4 °C 1012.9 hPa ESE 8.4 km/h 22.2 km/h 57% 0.0 mm
12:09 29.8 °C 20.5 °C 1012.9 hPa SSE 9.6 km/h 22.5 km/h 57.2% 0.0 mm
12:14 29.9 °C 20.5 °C 1012.9 hPa ESE 11.9 km/h 22.5 km/h 57.1% 0.0 mm
12:19 29.9 °C 20.5 °C 1013.1 hPa ESE 12.5 km/h 24.1 km/h 57.1% 0.0 mm
12:24 30.1 °C 20.7 °C 1013.1 hPa ESE 13.7 km/h 24.1 km/h 57.1% 0.0 mm
12:29 30.2 °C 20.7 °C 1013.1 hPa SE 13.4 km/h 22.5 km/h 56.8% 0.0 mm
12:34 30.2 °C 20.7 °C 1013.1 hPa SE 13 km/h 26.2 km/h 57% 0.0 mm
12:39 30.1 °C 20.7 °C 1013.1 hPa SE 13 km/h 25.7 km/h 57.2% 0.0 mm
12:44 30.1 °C 20.8 °C 1013.1 hPa ESE 13 km/h 26.2 km/h 57.6% 0.0 mm
12:49 29.9 °C 20.6 °C 1013.1 hPa SE 13.3 km/h 25.7 km/h 57.5% 0.0 mm
12:54 30.1 °C 20.9 °C 1013.1 hPa ESE 13.7 km/h 28.6 km/h 57.9% 0.0 mm
12:59 30 °C 20.7 °C 1013.1 hPa ESE 14.6 km/h 29.6 km/h 57.7% 0.0 mm
13:04 29.9 °C 20.8 °C 1013.1 hPa ESE 16.1 km/h 29 km/h 58.2% 0.0 mm
13:09 30.1 °C 20.9 °C 1013.1 hPa ESE 16.2 km/h 25.7 km/h 58.1% 0.0 mm
13:14 30.2 °C 20.7 °C 1013.1 hPa ESE 16.4 km/h 27.8 km/h 57% 0.0 mm
13:19 30.2 °C 20.5 °C 1013.2 hPa SE 16.1 km/h 27.4 km/h 56.2% 0.0 mm
13:24 30.1 °C 20.7 °C 1013.2 hPa ESE 15.6 km/h 27.8 km/h 57.1% 0.0 mm
13:29 30.2 °C 20.8 °C 1013.2 hPa ESE 15.6 km/h 27.4 km/h 57.2% 0.0 mm
13:34 30.3 °C 20.8 °C 1013.2 hPa ESE 15.6 km/h 28.2 km/h 57.1% 0.0 mm
13:39 30.4 °C 20.9 °C 1013.1 hPa ESE 15.8 km/h 29.6 km/h 56.9% 0.0 mm
13:44 30.4 °C 20.9 °C 1013.1 hPa ESE 16.1 km/h 29 km/h 56.6% 0.0 mm
13:49 30.4 °C 20.8 °C 1013.1 hPa ESE 15.7 km/h 25.7 km/h 56.3% 0.0 mm
13:54 30.4 °C 21 °C 1013.0 hPa ESE 14.8 km/h 29.6 km/h 57% 0.0 mm
13:59 30.3 °C 21 °C 1013.0 hPa ESE 16.2 km/h 31.5 km/h 57.5% 0.0 mm
14:04 30.4 °C 21.1 °C 1013.0 hPa ESE 18.4 km/h 32.2 km/h 57.3% 0.0 mm
14:09 30.5 °C 21.1 °C 1012.9 hPa Este 17.6 km/h 27.4 km/h 57.3% 0.0 mm
14:14 30.6 °C 21 °C 1012.9 hPa ESE 16.1 km/h 28.2 km/h 56.6% 0.0 mm
14:19 30.7 °C 21.1 °C 1012.9 hPa SE 16.1 km/h 27.8 km/h 56.6% 0.0 mm
14:24 30.8 °C 21 °C 1012.8 hPa ESE 16.1 km/h 28.2 km/h 56.2% 0.0 mm
14:29 30.7 °C 21.1 °C 1012.8 hPa ESE 16.5 km/h 29.8 km/h 56.9% 0.0 mm
14:34 30.6 °C 21.1 °C 1012.8 hPa ESE 17.2 km/h 30.6 km/h 57% 0.0 mm
14:39 30.7 °C 21.1 °C 1012.8 hPa ESE 16.9 km/h 29.6 km/h 56.8% 0.0 mm
14:44 30.7 °C 21 °C 1012.8 hPa ESE 16.4 km/h 29 km/h 56.3% 0.0 mm
14:49 30.7 °C 21 °C 1012.8 hPa ESE 16.1 km/h 26.2 km/h 56.1% 0.0 mm
14:54 30.8 °C 20.8 °C 1012.7 hPa SE 15.6 km/h 25.9 km/h 55.6% 0.0 mm
14:59 30.7 °C 20.9 °C 1012.7 hPa SE 15.6 km/h 25.9 km/h 56.2% 0.0 mm
15:04 30.7 °C 20.8 °C 1012.7 hPa ESE 15.6 km/h 25.9 km/h 55.7% 0.0 mm
15:09 30.8 °C 20.7 °C 1012.6 hPa SE 15 km/h 25.9 km/h 54.7% 0.0 mm
15:14 31 °C 20.9 °C 1012.6 hPa SE 14 km/h 25.7 km/h 55% 0.0 mm
15:19 31 °C 20.8 °C 1012.6 hPa SE 13.7 km/h 28.2 km/h 54.3% 0.0 mm
15:24 31 °C 20.7 °C 1012.5 hPa ESE 13 km/h 27.4 km/h 54.2% 0.0 mm
15:29 31.1 °C 20.7 °C 1012.5 hPa SE 13 km/h 24.1 km/h 54.1% 0.0 mm
15:34 31.1 °C 20.7 °C 1012.5 hPa SE 13 km/h 26.2 km/h 54% 0.0 mm
15:39 30.9 °C 20.9 °C 1012.4 hPa SE 14 km/h 33.3 km/h 55.4% 0.0 mm
15:44 30.9 °C 21 °C 1012.4 hPa SE 15.6 km/h 33.8 km/h 55.5% 0.0 mm
15:49 30.9 °C 21 °C 1012.4 hPa SE 15.9 km/h 29 km/h 55.5% 0.0 mm
15:54 31.1 °C 21.1 °C 1012.3 hPa ESE 16.4 km/h 27.8 km/h 55.6% 0.0 mm
15:59 31.2 °C 21.1 °C 1012.3 hPa ESE 16.3 km/h 27.4 km/h 54.9% 0.0 mm
16:04 31.2 °C 21.2 °C 1012.3 hPa ESE 16.1 km/h 25.9 km/h 55.1% 0.0 mm
16:09 31.2 °C 21.1 °C 1012.3 hPa ESE 16.1 km/h 30.6 km/h 55.1% 0.0 mm
16:14 31.3 °C 21 °C 1012.3 hPa ESE 16.1 km/h 30.6 km/h 54.3% 0.0 mm
16:19 31.2 °C 21.1 °C 1012.3 hPa ESE 15.4 km/h 27.8 km/h 55% 0.0 mm
16:24 31.3 °C 21 °C 1012.1 hPa SE 14 km/h 27.4 km/h 54.4% 0.0 mm
16:29 31.2 °C 21.1 °C 1012.1 hPa SE 14 km/h 26.2 km/h 55% 0.0 mm
16:34 31.1 °C 21.1 °C 1012.1 hPa SE 14 km/h 25.9 km/h 55.2% 0.0 mm
16:39 30.8 °C 20.9 °C 1012.0 hPa SE 14.6 km/h 27.8 km/h 55.4% 0.0 mm
16:44 30.8 °C 20.9 °C 1012.0 hPa SE 15.6 km/h 27.4 km/h 55.7% 0.0 mm
16:49 31 °C 21.1 °C 1012.0 hPa ESE 14.1 km/h 22.5 km/h 55.6% 0.0 mm
16:54 31 °C 20.9 °C 1011.9 hPa ESE 11.1 km/h 22.5 km/h 55.1% 0.0 mm
16:59 31.2 °C 21 °C 1011.9 hPa SE 11.1 km/h 20.4 km/h 54.7% 0.0 mm
17:04 31.4 °C 20.9 °C 1011.9 hPa SE 11.1 km/h 20.9 km/h 53.8% 0.0 mm
17:09 31.5 °C 20.8 °C 1011.6 hPa SE 10.6 km/h 20.9 km/h 53% 0.0 mm
17:14 31.4 °C 20.9 °C 1011.6 hPa ESE 9.5 km/h 19 km/h 53.6% 0.0 mm
17:19 31.5 °C 21.1 °C 1011.6 hPa SE 9.1 km/h 19.3 km/h 53.9% 0.0 mm
17:24 31.4 °C 21 °C 1011.4 hPa ENE 8.4 km/h 16.1 km/h 54% 0.0 mm
17:29 31.5 °C 21 °C 1011.4 hPa ESE 8.1 km/h 16.1 km/h 53.9% 0.0 mm
17:34 31.7 °C 21.1 °C 1011.4 hPa SSE 7.6 km/h 16.1 km/h 53.4% 0.0 mm
17:39 32 °C 21.1 °C 1011.2 hPa NE 6.5 km/h 11.9 km/h 52.6% 0.0 mm
17:44 32.2 °C 21.1 °C 1011.2 hPa NE 4.7 km/h 11.3 km/h 52.2% 0.0 mm
17:49 32.2 °C 21 °C 1011.2 hPa NE 5.1 km/h 11.3 km/h 51.7% 0.0 mm
17:54 32.1 °C 20.9 °C 1011.0 hPa ENE 5.8 km/h 14.8 km/h 51.7% 0.0 mm
17:59 31.9 °C 20.9 °C 1011.0 hPa NNE 7.1 km/h 18.5 km/h 52% 0.0 mm
18:04 31.9 °C 20.7 °C 1011.0 hPa NE 9.5 km/h 24.1 km/h 51.7% 0.0 mm
18:09 31.8 °C 20.5 °C 1010.8 hPa NE 10.7 km/h 24.1 km/h 51.2% 0.0 mm
18:14 31.9 °C 20.4 °C 1010.8 hPa NE 13 km/h 20.9 km/h 50.6% 0.0 mm
18:19 31.9 °C 19.8 °C 1010.8 hPa NE 12.6 km/h 20.9 km/h 48.7% 0.0 mm
18:24 32.1 °C 20.1 °C 1010.7 hPa NE 11.9 km/h 20.9 km/h 49.2% 0.0 mm
18:29 32.1 °C 20 °C 1010.7 hPa NE 11.9 km/h 22.2 km/h 49% 0.0 mm
18:34 32.1 °C 20.2 °C 1010.7 hPa NNE 11.9 km/h 22.5 km/h 49.4% 0.0 mm
18:39 32.2 °C 20.3 °C 1010.5 hPa NE 11 km/h 19.3 km/h 49.5% 0.0 mm
18:44 32.3 °C 20.4 °C 1010.5 hPa NE 9.5 km/h 22.5 km/h 49.5% 0.0 mm
18:49 32.2 °C 20.4 °C 1010.5 hPa NE 10.8 km/h 22.5 km/h 50% 0.0 mm
18:54 32.1 °C 20.4 °C 1010.2 hPa NNE 13 km/h 22.5 km/h 50% 0.0 mm
18:59 32.1 °C 20.4 °C 1010.2 hPa NNE 13 km/h 20.9 km/h 50% 0.0 mm
19:04 32.2 °C 20.4 °C 1010.2 hPa NE 13 km/h 20.9 km/h 50% 0.0 mm
19:09 32.2 °C 20.4 °C 1010.2 hPa NE 12.6 km/h 22.5 km/h 49.9% 0.0 mm
19:14 32.1 °C 20.3 °C 1010.2 hPa NNE 11.9 km/h 22.5 km/h 49.9% 0.0 mm
19:19 32.1 °C 20 °C 1010.2 hPa NE 12.3 km/h 22.5 km/h 49% 0.0 mm
19:24 31.9 °C 20 °C 1010.2 hPa NNE 13 km/h 22.5 km/h 49.6% 0.0 mm
19:29 31.8 °C 20 °C 1010.2 hPa NE 13 km/h 22.5 km/h 49.6% 0.0 mm
19:34 31.8 °C 20.1 °C 1010.2 hPa NE 13 km/h 22.5 km/h 49.9% 0.0 mm
19:39 31.8 °C 19.9 °C 1010.1 hPa NE 13 km/h 24.1 km/h 49.4% 0.0 mm
19:44 31.7 °C 19.7 °C 1010.1 hPa NNE 13 km/h 24.1 km/h 49.1% 0.0 mm
19:49 31.6 °C 19.6 °C 1010.2 hPa NE 13 km/h 22.5 km/h 49% 0.0 mm
19:54 31.6 °C 19.6 °C 1010.2 hPa NE 13 km/h 20.9 km/h 49% 0.0 mm
19:59 31.6 °C 19.5 °C 1010.2 hPa NE 12.7 km/h 20.9 km/h 49% 0.0 mm
20:04 31.5 °C 19.5 °C 1010.3 hPa NE 12.2 km/h 22.2 km/h 49% 0.0 mm
20:09 31.5 °C 19.6 °C 1010.3 hPa NE 12.1 km/h 22.5 km/h 49.5% 0.0 mm
20:14 31.4 °C 19.7 °C 1010.3 hPa NE 11.9 km/h 20.9 km/h 50.1% 0.0 mm
20:19 31.3 °C 20 °C 1010.4 hPa NE 11.9 km/h 20.9 km/h 51% 0.0 mm
20:24 31.1 °C 20 °C 1010.4 hPa NE 11.9 km/h 25.9 km/h 51.6% 0.0 mm
20:29 30.9 °C 20.1 °C 1010.4 hPa NE 12.3 km/h 25.7 km/h 52.5% 0.0 mm
20:34 30.9 °C 20.2 °C 1010.4 hPa NE 13 km/h 22.2 km/h 53% 0.0 mm
20:39 30.7 °C 20.2 °C 1010.4 hPa NE 12.8 km/h 22.5 km/h 53.5% 0.0 mm
20:44 30.5 °C 20.2 °C 1010.4 hPa NE 12.2 km/h 22.5 km/h 54% 0.0 mm
20:49 30.3 °C 20.3 °C 1010.6 hPa NE 12.8 km/h 22.5 km/h 54.8% 0.0 mm
20:54 30.2 °C 20.2 °C 1010.6 hPa NE 13.7 km/h 24.1 km/h 55% 0.0 mm
20:59 30.1 °C 20.2 °C 1010.6 hPa NE 13.7 km/h 24.1 km/h 55.8% 0.0 mm
21:04 29.9 °C 20.2 °C 1010.7 hPa NE 13.7 km/h 22.2 km/h 56% 0.0 mm
21:09 29.8 °C 20.4 °C 1010.7 hPa ENE 13.2 km/h 22.5 km/h 57% 0.0 mm
21:14 29.7 °C 20.4 °C 1010.7 hPa ENE 12.2 km/h 20.9 km/h 57.2% 0.0 mm
21:19 29.7 °C 20.7 °C 1010.9 hPa ESE 10.2 km/h 11.9 km/h 58.7% 0.0 mm
21:24 29.6 °C 21 °C 1010.9 hPa ESE 6.5 km/h 14.8 km/h 60.2% 0.0 mm
21:29 29.3 °C 21 °C 1010.9 hPa ESE 7.7 km/h 19 km/h 61% 0.0 mm
21:34 29.1 °C 21 °C 1011.3 hPa ESE 10 km/h 20.1 km/h 62% 0.0 mm
21:39 28.8 °C 21 °C 1011.3 hPa ESE 10.1 km/h 20.9 km/h 62.8% 0.0 mm
21:44 28.7 °C 21 °C 1011.3 hPa ESE 10.3 km/h 25.9 km/h 63.5% 0.0 mm
21:49 28.3 °C 21 °C 1011.5 hPa SE 11.4 km/h 25.7 km/h 64.7% 0.0 mm
21:54 28.1 °C 21.1 °C 1011.5 hPa ESE 13.7 km/h 22.5 km/h 65.5% 0.0 mm
21:59 27.9 °C 21.1 °C 1011.5 hPa ESE 13.4 km/h 22.5 km/h 66.4% 0.0 mm
22:04 27.7 °C 21.1 °C 1011.9 hPa ESE 13 km/h 20.4 km/h 67% 0.0 mm
22:09 27.6 °C 21.1 °C 1011.9 hPa ESE 13 km/h 20.9 km/h 67.9% 0.0 mm
22:14 27.4 °C 21 °C 1011.9 hPa ESE 13 km/h 19.3 km/h 68.2% 0.0 mm
22:19 27.3 °C 21.1 °C 1012.3 hPa Este 12 km/h 16.1 km/h 69% 0.0 mm
22:24 27.2 °C 21.1 °C 1012.3 hPa ESE 10 km/h 16.4 km/h 69.2% 0.0 mm
22:29 27.2 °C 21.2 °C 1012.3 hPa ESE 10.4 km/h 19 km/h 70% 0.0 mm
22:34 27.1 °C 21.2 °C 1012.6 hPa ESE 11.1 km/h 19.3 km/h 70.4% 0.0 mm
22:39 26.9 °C 21.2 °C 1012.6 hPa ESE 10.7 km/h 19.8 km/h 71% 0.0 mm
22:44 26.8 °C 21.3 °C 1012.6 hPa ESE 10 km/h 24.1 km/h 72% 0.0 mm
22:49 26.7 °C 21.4 °C 1012.9 hPa ESE 11.9 km/h 24.1 km/h 73.1% 0.0 mm
22:54 26.5 °C 21.5 °C 1012.9 hPa ESE 15.6 km/h 24.5 km/h 74% 0.0 mm
22:59 26.4 °C 21.4 °C 1012.9 hPa ESE 15.6 km/h 24.1 km/h 74.1% 0.0 mm
23:04 26.3 °C 21.5 °C 1013.1 hPa Este 15.6 km/h 24.1 km/h 75% 0.0 mm
23:09 26.3 °C 21.5 °C 1013.1 hPa ESE 14.4 km/h 20.4 km/h 75% 0.0 mm
23:14 26.3 °C 21.5 °C 1013.1 hPa ESE 12.2 km/h 20.9 km/h 75% 0.0 mm
23:19 26.2 °C 21.6 °C 1013.2 hPa ESE 12.1 km/h 20.9 km/h 75.9% 0.0 mm
23:24 26.2 °C 21.6 °C 1013.2 hPa Este 11.9 km/h 16.1 km/h 76% 0.0 mm
23:29 26.2 °C 21.6 °C 1013.2 hPa Este 11.1 km/h 16.7 km/h 76% 0.0 mm
23:34 26.2 °C 21.6 °C 1013.3 hPa ENE 9.5 km/h 16.1 km/h 76% 0.0 mm
23:39 26.1 °C 21.8 °C 1013.3 hPa ENE 8.6 km/h 14.8 km/h 77% 0.0 mm
23:44 26.1 °C 21.8 °C 1013.3 hPa Este 6.9 km/h 17.2 km/h 77% 0.0 mm
23:49 26 °C 21.7 °C 1013.4 hPa Este 8 km/h 17.7 km/h 77% 0.0 mm
23:54 26 °C 21.6 °C 1013.4 hPa NE 10 km/h 14.8 km/h 76.7% 0.0 mm
23:59 26 °C 21.6 °C 1013.4 hPa NE 9.3 km/h 13 km/h 76.6% 0.0 mm
Murcia-Puente Tocinos, Espa?a
Compliments of Weather Underground - 3.25 mb

La estación de MeteoMurcia.com, publica sus datos en los siguientes proyectos:

Weather Underground PWS IMURCIAP2 Meteoclimatic www.awekas.at

Web Analytics

Clicky